Time;durP1;ratioP1;P1;durP2;ratioP2;P2;SDS_P1;SDS_P2;PMS_P1;PMS_P2;Temp;Humidity;BMP_temperature;BMP_pressure;BME280_temperature;BME280_humidity;BME280_pressure;Samples;Min_cycle;Max_cycle;Signal;HPM_P1;HPM_P2
2023/05/30 00:02:14;;;;;;;39.15;35.03;;;17.80;99.90;;;;;;5229374;28;20079;-67
2023/05/30 00:04:45;;;;;;;36.58;32.85;;;17.70;99.90;;;;;;5229430;28;20029;-67
2023/05/30 00:07:16;;;;;;;39.28;35.38;;;17.80;99.90;;;;;;5229595;28;20021;-67
2023/05/30 00:09:47;;;;;;;36.25;32.63;;;17.80;99.90;;;;;;5229268;28;20025;-69
2023/05/30 00:12:18;;;;;;;39.72;35.83;;;17.70;99.90;;;;;;5229120;28;20557;-67
2023/05/30 00:14:49;;;;;;;37.95;34.35;;;17.70;99.90;;;;;;5229125;28;20029;-68
2023/05/30 00:17:20;;;;;;;39.90;35.97;;;17.70;99.90;;;;;;5229263;28;20388;-69
2023/05/30 00:19:54;;;;;;;38.75;34.88;;;17.70;99.90;;;;;;5228672;28;20045;-67
2023/05/30 00:22:25;;;;;;;38.22;34.17;;;17.70;99.90;;;;;;5229086;28;20021;-70
2023/05/30 00:24:59;;;;;;;38.85;35.00;;;17.70;99.90;;;;;;5228876;28;20028;-68
2023/05/30 00:27:30;;;;;;;37.80;34.33;;;17.70;99.90;;;;;;5228987;28;20037;-68
2023/05/30 00:30:01;;;;;;;37.53;34.00;;;17.70;99.90;;;;;;5210946;28;20021;-67
2023/05/30 00:32:33;;;;;;;38.40;34.75;;;17.60;99.90;;;;;;5228682;28;20032;-68
2023/05/30 00:35:05;;;;;;;38.58;35.03;;;17.60;99.90;;;;;;5228792;28;20032;-67
2023/05/30 00:37:36;;;;;;;38.60;34.90;;;17.70;99.90;;;;;;5228656;28;20025;-67
2023/05/30 00:40:07;;;;;;;35.03;31.73;;;17.70;99.90;;;;;;5228524;28;20032;-67
2023/05/30 00:42:38;;;;;;;37.28;33.67;;;17.60;99.90;;;;;;5228559;28;20070;-68
2023/05/30 00:45:09;;;;;;;34.42;31.20;;;17.60;99.90;;;;;;5228475;28;20025;-67
2023/05/30 00:47:40;;;;;;;35.10;31.55;;;17.70;99.90;;;;;;5228424;28;20115;-66
2023/05/30 00:50:11;;;;;;;34.47;30.98;;;17.60;99.90;;;;;;5228199;28;20033;-66
2023/05/30 00:52:42;;;;;;;36.03;32.72;;;17.50;99.90;;;;;;5228312;28;20029;-66
2023/05/30 00:55:14;;;;;;;35.15;31.95;;;17.50;99.90;;;;;;5228272;28;20032;-67
2023/05/30 00:57:46;;;;;;;36.63;33.22;;;17.70;99.90;;;;;;5210225;28;20377;-67
2023/05/30 01:00:18;;;;;;;34.38;31.30;;;17.70;99.90;;;;;;5228123;28;20055;-68
2023/05/30 01:02:49;;;;;;;35.05;31.77;;;17.60;99.90;;;;;;5228026;28;20133;-67
2023/05/30 01:05:20;;;;;;;35.40;31.77;;;17.50;99.90;;;;;;5228029;28;20108;-68
2023/05/30 01:07:52;;;;;;;35.17;31.95;;;17.50;99.90;;;;;;5228088;28;20119;-67
2023/05/30 01:10:23;;;;;;;34.53;31.02;;;17.60;99.90;;;;;;5227997;28;20100;-69
2023/05/30 01:13:15;;;;;;;35.33;32.13;;;17.50;99.90;;;;;;5227874;28;20028;-68
2023/05/30 01:15:56;;;;;;;39.45;35.85;;;17.50;99.90;;;;;;5228026;28;20049;-66
2023/05/30 01:18:39;;;;;;;41.03;37.30;;;17.50;99.90;;;;;;5227726;28;20075;-67
2023/05/30 01:21:13;;;;;;;39.35;35.38;;;17.60;99.90;;;;;;5227883;28;20077;-67
2023/05/30 01:24:11;;;;;;;34.00;30.98;;;17.50;99.90;;;;;;5227167;28;20024;-66
2023/05/30 01:27:11;;;;;;;37.05;33.38;;;17.50;99.90;;;;;;5227622;28;20044;-68
2023/05/30 01:29:43;;;;;;;39.17;35.22;;;17.60;99.90;;;;;;5227833;28;20469;-66
2023/05/30 01:32:14;;;;;;;37.35;33.80;;;17.60;99.90;;;;;;5227521;28;20024;-66
2023/05/30 01:34:45;;;;;;;38.25;34.72;;;17.50;99.90;;;;;;5227747;28;20021;-69
2023/05/30 01:37:16;;;;;;;41.03;37.10;;;17.50;99.90;;;;;;5227425;28;20032;-69
2023/05/30 01:39:47;;;;;;;40.83;36.83;;;17.40;99.90;;;;;;5227294;28;20074;-66
2023/05/30 01:42:25;;;;;;;44.20;40.03;;;17.50;99.90;;;;;;5227324;28;20029;-66
2023/05/30 01:45:16;;;;;;;41.55;37.55;;;17.60;99.90;;;;;;5209371;28;20021;-66
2023/05/30 01:48:04;;;;;;;37.53;33.90;;;17.50;99.90;;;;;;5227256;28;20063;-69
2023/05/30 01:50:41;;;;;;;38.38;34.60;;;17.50;99.90;;;;;;5226992;28;20072;-70
2023/05/30 01:53:17;;;;;;;41.78;37.38;;;17.50;99.90;;;;;;5227109;28;20481;-66
2023/05/30 01:55:54;;;;;;;41.05;37.13;;;17.50;99.90;;;;;;5227166;28;20022;-68
2023/05/30 01:58:25;;;;;;;40.80;36.72;;;17.50;99.90;;;;;;5227010;28;20033;-67
2023/05/30 02:00:57;;;;;;;39.58;35.97;;;17.50;99.90;;;;;;5226982;28;20017;-68
2023/05/30 02:03:31;;;;;;;40.55;36.67;;;17.50;99.90;;;;;;5226855;28;20477;-67
2023/05/30 02:06:02;;;;;;;44.55;40.38;;;17.60;99.90;;;;;;5226785;28;20503;-68
2023/05/30 02:08:33;;;;;;;43.63;39.38;;;17.50;99.90;;;;;;5226800;28;20028;-67
2023/05/30 02:11:04;;;;;;;43.75;39.50;;;17.50;99.90;;;;;;5226796;28;20476;-67
2023/05/30 02:13:35;;;;;;;44.33;40.33;;;17.60;99.90;;;;;;5226758;28;20024;-68
2023/05/30 02:16:06;;;;;;;41.13;37.33;;;17.60;99.90;;;;;;5226719;28;20108;-69
2023/05/30 02:18:40;;;;;;;41.22;37.40;;;17.60;99.90;;;;;;5226426;28;20049;-69
2023/05/30 02:21:12;;;;;;;42.63;38.65;;;17.60;99.90;;;;;;5226689;28;20041;-68
2023/05/30 02:23:43;;;;;;;42.55;38.65;;;17.60;99.90;;;;;;5226691;28;20112;-68
2023/05/30 02:26:13;;;;;;;41.85;37.97;;;17.60;99.90;;;;;;5226556;28;20029;-67
2023/05/30 02:28:44;;;;;;;41.97;38.15;;;17.70;99.90;;;;;;5226640;28;20021;-67
2023/05/30 02:31:15;;;;;;;42.00;38.20;;;17.70;99.90;;;;;;5226685;28;20460;-68
2023/05/30 02:33:46;;;;;;;43.22;39.22;;;17.50;99.90;;;;;;5226927;28;20021;-67
2023/05/30 02:36:17;;;;;;;43.00;38.95;;;17.60;99.90;;;;;;5207868;28;20024;-67
2023/05/30 02:38:48;;;;;;;40.92;36.83;;;17.50;99.90;;;;;;5226532;28;20082;-66
2023/05/30 02:41:19;;;;;;;38.70;35.20;;;17.50;99.90;;;;;;5226578;28;20044;-68
2023/05/30 02:43:50;;;;;;;44.55;40.22;;;17.50;99.90;;;;;;5226492;28;20075;-68
2023/05/30 02:46:21;;;;;;;41.92;37.78;;;17.50;99.90;;;;;;5226344;28;20037;-67
2023/05/30 02:48:52;;;;;;;41.95;38.03;;;17.60;99.90;;;;;;5226219;28;20356;-69
2023/05/30 02:51:23;;;;;;;42.78;38.67;;;17.60;99.90;;;;;;5226192;28;20078;-69
2023/05/30 02:53:53;;;;;;;41.70;37.85;;;17.70;99.90;;;;;;5208381;28;20376;-69
2023/05/30 02:56:27;;;;;;;39.65;36.15;;;17.60;99.90;;;;;;5208430;28;20029;-68
2023/05/30 02:58:59;;;;;;;42.00;37.90;;;17.70;99.90;;;;;;5208311;28;20082;-68
2023/05/30 03:01:29;;;;;;;42.47;38.45;;;17.50;99.90;;;;;;5226298;28;20039;-67
2023/05/30 03:04:00;;;;;;;43.50;39.50;;;17.70;99.90;;;;;;5208345;28;20025;-68
2023/05/30 03:06:31;;;;;;;43.67;39.40;;;17.60;99.90;;;;;;5226203;28;20056;-69
2023/05/30 03:09:03;;;;;;;44.92;40.67;;;17.60;99.90;;;;;;5226169;28;20036;-69
2023/05/30 03:11:34;;;;;;;44.53;40.33;;;17.70;99.90;;;;;;5226100;28;20104;-67
2023/05/30 03:14:05;;;;;;;42.30;38.50;;;17.70;99.90;;;;;;5226185;28;20108;-66
2023/05/30 03:16:36;;;;;;;42.45;38.45;;;17.70;99.90;;;;;;5226088;28;20017;-66
2023/05/30 03:19:07;;;;;;;44.92;40.67;;;17.70;99.90;;;;;;5225870;28;20041;-66
2023/05/30 03:21:38;;;;;;;44.95;40.72;;;17.70;99.90;;;;;;5225897;28;20048;-68
2023/05/30 03:24:09;;;;;;;44.55;40.53;;;17.70;99.90;;;;;;5226011;28;20089;-69
2023/05/30 03:26:39;;;;;;;41.63;37.80;;;17.70;99.90;;;;;;5225854;28;20076;-69
2023/05/30 03:29:10;;;;;;;42.25;38.13;;;17.70;99.90;;;;;;5225827;28;20415;-67
2023/05/30 03:31:41;;;;;;;44.13;40.13;;;17.70;99.90;;;;;;5225827;28;20373;-70
2023/05/30 03:34:12;;;;;;;45.15;40.88;;;17.80;99.90;;;;;;5207999;28;20025;-66
2023/05/30 03:36:43;;;;;;;39.13;35.55;;;17.70;99.90;;;;;;5225874;28;20025;-69
2023/05/30 03:39:13;;;;;;;41.92;37.88;;;17.80;99.90;;;;;;5225702;28;20033;-69
2023/05/30 03:41:44;;;;;;;42.85;38.88;;;17.70;99.90;;;;;;5225803;28;20366;-68
2023/05/30 03:44:15;;;;;;;43.30;39.03;;;17.80;99.90;;;;;;5208252;28;20055;-68
2023/05/30 03:46:46;;;;;;;43.08;38.88;;;17.70;99.90;;;;;;5226368;28;20104;-68
2023/05/30 03:49:17;;;;;;;44.35;39.95;;;17.70;99.90;;;;;;5229741;28;20033;-70
2023/05/30 03:51:48;;;;;;;42.00;38.00;;;17.70;99.90;;;;;;5229675;28;20021;-66
2023/05/30 03:54:19;;;;;;;48.03;40.10;;;17.80;99.90;;;;;;5229643;28;20094;-69
2023/05/30 03:56:49;;;;;;;43.72;39.33;;;17.80;99.90;;;;;;5229457;28;20428;-69
2023/05/30 03:59:20;;;;;;;43.47;39.33;;;17.70;99.90;;;;;;5229385;28;20028;-68
2023/05/30 04:01:51;;;;;;;46.17;41.22;;;17.80;99.90;;;;;;5229361;28;20094;-69
2023/05/30 04:04:22;;;;;;;45.20;40.72;;;17.80;99.90;;;;;;5229430;28;20025;-66
2023/05/30 04:06:53;;;;;;;43.00;38.88;;;17.80;99.90;;;;;;5229161;28;20063;-67
2023/05/30 04:09:24;;;;;;;40.42;36.58;;;17.90;99.90;;;;;;5229240;28;20613;-66
2023/05/30 04:11:56;;;;;;;39.35;35.55;;;17.90;99.90;;;;;;5229103;28;20021;-66
2023/05/30 04:14:27;;;;;;;38.30;34.60;;;17.90;99.90;;;;;;5229146;28;20028;-67
2023/05/30 04:16:57;;;;;;;35.72;32.05;;;17.90;99.90;;;;;;5229188;28;20530;-67
2023/05/30 04:19:28;;;;;;;35.05;31.33;;;18.00;99.90;;;;;;5228603;28;20025;-66
2023/05/30 04:21:59;;;;;;;33.78;30.30;;;17.90;99.90;;;;;;5228965;28;20443;-67
2023/05/30 04:24:30;;;;;;;35.85;32.15;;;18.00;99.90;;;;;;5228872;28;20040;-66
2023/05/30 04:27:02;;;;;;;34.03;30.55;;;18.10;99.90;;;;;;5228667;28;20086;-69
2023/05/30 04:29:33;;;;;;;34.13;30.88;;;18.10;99.90;;;;;;5228872;28;20024;-67
2023/05/30 04:32:04;;;;;;;32.90;29.63;;;18.10;99.90;;;;;;5228798;28;20025;-68
2023/05/30 04:34:35;;;;;;;35.58;32.28;;;18.20;99.90;;;;;;5228823;28;20025;-67
2023/05/30 04:37:07;;;;;;;30.83;27.95;;;18.20;99.90;;;;;;5228622;28;20082;-68
2023/05/30 04:39:38;;;;;;;32.17;29.17;;;18.20;99.90;;;;;;5228695;28;20036;-67
2023/05/30 04:42:09;;;;;;;32.13;29.13;;;18.20;99.90;;;;;;5228619;28;20444;-67
2023/05/30 04:44:39;;;;;;;30.63;27.80;;;18.30;99.90;;;;;;5228512;28;20180;-68
2023/05/30 04:47:10;;;;;;;32.42;29.63;;;18.20;99.90;;;;;;5228267;28;20087;-68
2023/05/30 04:49:41;;;;;;;31.38;28.75;;;18.30;99.90;;;;;;5228209;28;20025;-67
2023/05/30 04:52:12;;;;;;;28.85;26.35;;;18.30;99.90;;;;;;5228542;28;20025;-66
2023/05/30 04:54:43;;;;;;;29.23;26.60;;;18.40;99.90;;;;;;5228340;28;20017;-66
2023/05/30 04:57:14;;;;;;;28.38;26.08;;;18.40;99.90;;;;;;5210315;28;20372;-66
2023/05/30 04:59:45;;;;;;;29.77;27.13;;;18.30;99.90;;;;;;5227171;28;20024;-69
2023/05/30 05:02:17;;;;;;;25.38;23.25;;;18.50;99.90;;;;;;5228195;28;20431;-68
2023/05/30 05:04:47;;;;;;;25.17;22.98;;;18.40;99.90;;;;;;5210318;28;20078;-67
2023/05/30 05:07:18;;;;;;;26.35;24.02;;;18.50;99.90;;;;;;5228328;28;20440;-67
2023/05/30 05:09:49;;;;;;;26.95;24.45;;;18.60;99.90;;;;;;5210384;28;20025;-66
2023/05/30 05:12:20;;;;;;;25.63;23.17;;;18.70;99.90;;;;;;5228069;28;20029;-66
2023/05/30 05:14:53;;;;;;;27.80;25.27;;;18.70;99.90;;;;;;5228137;28;20047;-69
2023/05/30 05:17:24;;;;;;;25.52;23.35;;;18.70;99.90;;;;;;5210227;28;20385;-66
2023/05/30 05:19:55;;;;;;;24.98;22.98;;;18.80;99.90;;;;;;5227491;28;20040;-67
2023/05/30 05:22:26;;;;;;;24.80;22.70;;;18.90;99.90;;;;;;5227932;28;20384;-66
2023/05/30 05:24:57;;;;;;;24.13;22.10;;;19.00;99.90;;;;;;5227812;28;20017;-67
2023/05/30 05:27:28;;;;;;;23.83;21.90;;;18.90;99.90;;;;;;5227823;28;20024;-66
2023/05/30 05:29:59;;;;;;;23.30;21.38;;;19.00;99.90;;;;;;5227780;28;20033;-69
2023/05/30 05:32:36;;;;;;;29.00;26.50;;;19.00;99.90;;;;;;5227692;28;20044;-69
2023/05/30 05:35:07;;;;;;;30.98;27.98;;;19.10;99.90;;;;;;5227603;28;20037;-69
2023/05/30 05:37:38;;;;;;;26.80;24.50;;;19.00;99.90;;;;;;5227440;28;20029;-67
2023/05/30 05:40:10;;;;;;;24.45;22.50;;;19.10;99.90;;;;;;5227292;28;20083;-67
2023/05/30 05:42:42;;;;;;;24.88;22.77;;;19.10;99.90;;;;;;5227401;28;20489;-66
2023/05/30 05:45:13;;;;;;;26.52;24.23;;;19.00;99.90;;;;;;5227210;28;20025;-68
2023/05/30 05:47:43;;;;;;;25.98;24.05;;;19.00;99.90;;;;;;5227264;28;20036;-67
2023/05/30 05:50:14;;;;;;;26.42;24.08;;;19.00;99.90;;;;;;5226940;28;20351;-67
2023/05/30 05:52:45;;;;;;;24.33;22.33;;;19.10;99.90;;;;;;5227138;28;20036;-67
2023/05/30 05:55:16;;;;;;;25.60;23.65;;;19.00;99.90;;;;;;5227427;28;20405;-67
2023/05/30 05:57:47;;;;;;;28.77;26.40;;;19.00;99.90;;;;;;5227058;28;20036;-66
2023/05/30 06:00:19;;;;;;;30.90;28.55;;;19.10;99.90;;;;;;5226961;28;20422;-67
2023/05/30 06:02:49;;;;;;;28.60;26.20;;;19.10;99.90;;;;;;5209088;28;20040;-67
2023/05/30 06:05:20;;;;;;;25.13;23.15;;;19.20;99.90;;;;;;5226956;28;20044;-66
2023/05/30 06:07:51;;;;;;;25.83;24.08;;;19.20;99.90;;;;;;5226983;28;20064;-66
2023/05/30 06:10:22;;;;;;;23.80;22.05;;;19.20;99.90;;;;;;5226741;28;20023;-67
2023/05/30 06:12:53;;;;;;;24.73;22.70;;;19.20;99.90;;;;;;5226789;28;20028;-66
2023/05/30 06:15:25;;;;;;;24.30;22.55;;;19.30;99.90;;;;;;5226949;28;20033;-68
2023/05/30 06:17:55;;;;;;;27.13;24.83;;;19.20;99.90;;;;;;5226981;28;20079;-68
2023/05/30 06:20:26;;;;;;;28.02;25.92;;;19.40;99.90;;;;;;5226754;28;20473;-69
2023/05/30 06:22:57;;;;;;;25.90;23.77;;;19.40;99.90;;;;;;5226770;28;20377;-68
2023/05/30 06:25:30;;;;;;;27.15;25.13;;;19.40;99.90;;;;;;5226645;28;20029;-66
2023/05/30 06:28:01;;;;;;;26.92;24.70;;;19.30;99.90;;;;;;5226702;28;20029;-69
2023/05/30 06:30:31;;;;;;;28.20;26.25;;;19.30;99.90;;;;;;5226590;28;20033;-67
2023/05/30 06:33:03;;;;;;;26.00;24.00;;;19.30;99.90;;;;;;5226605;28;20389;-68
2023/05/30 06:35:34;;;;;;;24.17;22.13;;;19.20;99.90;;;;;;5226676;28;20380;-68
2023/05/30 06:38:05;;;;;;;23.13;21.45;;;19.20;99.90;;;;;;5226418;28;20055;-66
2023/05/30 06:40:35;;;;;;;26.13;24.23;;;19.20;99.90;;;;;;5226582;28;20718;-66
2023/05/30 06:43:06;;;;;;;25.65;23.55;;;19.30;99.90;;;;;;5226494;28;20037;-69
2023/05/30 06:45:37;;;;;;;26.00;23.80;;;19.30;99.90;;;;;;5226331;28;20029;-68
2023/05/30 06:48:08;;;;;;;26.27;23.63;;;19.40;99.90;;;;;;5226272;28;20020;-68
2023/05/30 06:50:39;;;;;;;26.65;24.60;;;19.50;99.90;;;;;;5226211;28;20021;-69
2023/05/30 06:53:10;;;;;;;26.20;24.20;;;19.50;99.90;;;;;;5226395;28;20103;-68
2023/05/30 06:55:40;;;;;;;27.80;25.65;;;19.50;99.90;;;;;;5226173;28;20025;-68
2023/05/30 06:58:13;;;;;;;27.30;25.20;;;19.50;99.90;;;;;;5226177;28;20075;-67
2023/05/30 07:00:44;;;;;;;27.77;25.63;;;19.60;99.90;;;;;;5226238;28;20095;-69
2023/05/30 07:03:15;;;;;;;27.05;24.77;;;19.60;99.90;;;;;;5226198;28;20021;-67
2023/05/30 07:05:46;;;;;;;26.25;24.23;;;19.60;99.90;;;;;;5226155;28;20029;-66
2023/05/30 07:08:16;;;;;;;26.33;24.20;;;19.80;99.90;;;;;;5226225;28;20032;-69
2023/05/30 07:10:47;;;;;;;28.08;25.67;;;19.90;99.90;;;;;;5226241;28;20028;-68
2023/05/30 07:13:18;;;;;;;24.88;22.67;;;19.90;99.90;;;;;;5226157;28;20439;-68
2023/05/30 07:15:49;;;;;;;27.38;25.30;;;20.00;99.90;;;;;;5226105;28;20029;-68
2023/05/30 07:18:20;;;;;;;28.05;25.67;;;20.00;99.90;;;;;;5225969;28;20029;-68
2023/05/30 07:20:51;;;;;;;27.92;25.92;;;20.10;99.90;;;;;;5225738;28;20057;-70
2023/05/30 07:23:22;;;;;;;27.15;24.92;;;20.20;99.90;;;;;;5229481;28;20017;-68
2023/05/30 07:25:53;;;;;;;29.13;26.80;;;20.10;99.90;;;;;;5229920;28;20059;-67
2023/05/30 07:28:24;;;;;;;27.02;25.02;;;20.10;99.90;;;;;;5230157;28;20059;-67
2023/05/30 07:30:55;;;;;;;26.83;24.45;;;20.10;99.90;;;;;;5230129;28;20049;-69
2023/05/30 07:33:25;;;;;;;28.23;26.23;;;20.10;99.90;;;;;;5230441;28;20024;-66
2023/05/30 07:35:56;;;;;;;29.10;26.90;;;20.30;99.90;;;;;;5230002;28;20025;-67
2023/05/30 07:38:27;;;;;;;29.17;27.25;;;20.50;99.90;;;;;;5229979;28;20025;-69
2023/05/30 07:40:58;;;;;;;29.95;27.63;;;20.70;99.90;;;;;;5229908;28;20028;-67
2023/05/30 07:43:29;;;;;;;31.52;29.02;;;20.70;99.90;;;;;;5229889;28;20512;-66
2023/05/30 07:46:00;;;;;;;28.45;26.25;;;20.70;99.90;;;;;;5229757;28;20033;-66
2023/05/30 07:48:31;;;;;;;29.55;27.42;;;20.70;99.90;;;;;;5229533;28;20043;-66
2023/05/30 07:51:02;;;;;;;29.02;26.70;;;20.70;99.90;;;;;;5229682;28;20035;-69
2023/05/30 07:53:33;;;;;;;30.63;28.08;;;20.70;99.90;;;;;;5229639;28;20021;-65
2023/05/30 07:56:04;;;;;;;27.35;25.35;;;20.70;99.90;;;;;;5229647;28;20057;-66
2023/05/30 07:58:35;;;;;;;27.70;25.80;;;20.80;99.90;;;;;;5229405;28;20117;-69
2023/05/30 08:01:05;;;;;;;29.83;27.48;;;20.80;99.90;;;;;;5229455;28;20559;-66
2023/05/30 08:03:36;;;;;;;27.25;25.02;;;21.10;99.90;;;;;;5211529;28;20017;-67
2023/05/30 08:06:07;;;;;;;26.73;24.38;;;21.30;99.90;;;;;;5229225;28;20082;-67
2023/05/30 08:08:38;;;;;;;27.05;25.05;;;21.30;99.90;;;;;;5229241;28;20029;-68
2023/05/30 08:11:09;;;;;;;26.15;24.23;;;21.20;99.90;;;;;;5229212;28;20107;-68
2023/05/30 08:13:39;;;;;;;25.52;23.75;;;21.10;99.90;;;;;;5229144;28;20079;-66
2023/05/30 08:16:11;;;;;;;25.77;23.90;;;21.10;99.90;;;;;;5229116;28;20488;-68
2023/05/30 08:18:42;;;;;;;25.20;23.17;;;21.20;99.90;;;;;;5228805;28;20103;-67
2023/05/30 08:21:13;;;;;;;23.70;21.85;;;21.40;99.90;;;;;;5229046;28;20110;-66
2023/05/30 08:23:45;;;;;;;23.67;21.60;;;21.40;99.90;;;;;;5211057;28;20024;-66
2023/05/30 08:26:16;;;;;;;25.65;23.67;;;21.30;99.90;;;;;;5228831;28;20079;-67
2023/05/30 08:28:47;;;;;;;24.80;23.10;;;21.40;99.90;;;;;;5234745;28;20029;-66
2023/05/30 08:31:19;;;;;;;25.92;24.00;;;21.40;99.90;;;;;;5249470;28;20074;-66
2023/05/30 08:33:50;;;;;;;29.00;26.80;;;21.50;99.90;;;;;;5249378;28;20054;-66
2023/05/30 08:36:21;;;;;;;27.30;24.88;;;21.50;99.90;;;;;;5249469;28;20028;-67
2023/05/30 08:38:56;;;;;;;27.42;25.23;;;21.70;99.90;;;;;;5249217;28;20027;-66
2023/05/30 08:41:26;;;;;;;25.23;23.20;;;21.60;99.90;;;;;;5249332;28;20024;-68
2023/05/30 08:43:57;;;;;;;24.42;22.73;;;21.70;99.90;;;;;;5249372;28;20078;-66
2023/05/30 08:46:29;;;;;;;22.08;20.30;;;21.80;99.90;;;;;;5249239;28;20078;-67
2023/05/30 08:49:01;;;;;;;23.20;21.58;;;21.70;99.90;;;;;;5249421;28;20097;-69
2023/05/30 08:51:33;;;;;;;22.73;21.02;;;21.80;99.90;;;;;;5249297;28;20024;-69
2023/05/30 08:54:08;;;;;;;22.88;20.92;;;21.90;99.90;;;;;;5249318;28;20035;-69
2023/05/30 08:56:45;;;;;;;21.20;19.70;;;21.80;99.90;;;;;;5249246;28;20489;-67
2023/05/30 08:59:19;;;;;;;25.20;23.05;;;21.80;99.90;;;;;;5249231;28;20433;-68
2023/05/30 09:01:52;;;;;;;22.75;20.85;;;21.70;99.90;;;;;;5248995;28;20464;-66
2023/05/30 09:04:24;;;;;;;22.73;20.95;;;21.70;99.90;;;;;;5248946;28;20457;-69
2023/05/30 09:06:57;;;;;;;23.65;21.63;;;21.80;99.90;;;;;;5248906;28;20037;-69
2023/05/30 09:09:32;;;;;;;21.88;20.35;;;21.90;99.90;;;;;;5248795;28;20077;-66
2023/05/30 09:12:05;;;;;;;21.83;20.17;;;21.80;99.90;;;;;;5248831;28;20024;-66
2023/05/30 09:14:36;;;;;;;20.67;19.10;;;22.30;99.90;;;;;;5248768;28;20024;-69
2023/05/30 09:17:07;;;;;;;19.98;18.35;;;22.50;99.90;;;;;;5248616;28;20511;-69
2023/05/30 09:19:39;;;;;;;21.60;17.35;;;22.60;99.90;;;;;;5248072;28;20123;-68
2023/05/30 09:22:10;;;;;;;16.95;15.38;;;22.80;99.90;;;;;;5248445;28;20048;-69
2023/05/30 09:24:59;;;;;;;17.88;16.17;;;22.80;99.90;;;;;;5248478;28;20016;-69
2023/05/30 09:27:35;;;;;;;17.45;15.70;;;23.00;99.90;;;;;;5248317;28;20052;-67
2023/05/30 09:30:10;;;;;;;17.90;16.30;;;22.80;99.90;;;;;;5248354;28;20090;-68
2023/05/30 09:32:42;;;;;;;17.25;15.82;;;22.70;99.90;;;;;;5248290;28;20027;-69
2023/05/30 09:35:13;;;;;;;17.65;16.20;;;22.70;99.90;;;;;;5248156;28;20029;-68
2023/05/30 09:37:44;;;;;;;17.33;15.82;;;22.80;99.90;;;;;;5248242;28;20027;-68
2023/05/30 09:40:17;;;;;;;17.30;15.73;;;23.10;99.90;;;;;;5230070;28;20480;-66
2023/05/30 09:42:52;;;;;;;17.45;15.90;;;22.90;99.90;;;;;;5248031;28;20032;-68
2023/05/30 09:45:24;;;;;;;19.63;18.10;;;22.70;99.90;;;;;;5247501;28;20043;-66
2023/05/30 09:47:55;;;;;;;19.73;18.02;;;23.10;99.90;;;;;;5230136;28;20498;-69
2023/05/30 09:50:26;;;;;;;19.23;17.48;;;23.30;99.90;;;;;;5248092;28;20021;-69
2023/05/30 09:52:59;;;;;;;19.55;17.83;;;23.60;99.90;;;;;;5247934;28;20078;-69
2023/05/30 09:55:30;;;;;;;20.52;18.60;;;23.50;99.90;;;;;;5247785;28;20020;-70
2023/05/30 09:58:03;;;;;;;20.63;18.70;;;23.70;99.90;;;;;;5247828;28;20032;-69
2023/05/30 10:00:33;;;;;;;20.42;18.65;;;23.80;99.90;;;;;;5247929;28;20021;-66
2023/05/30 10:03:04;;;;;;;20.92;19.20;;;23.80;99.90;;;;;;5248045;28;20024;-69
2023/05/30 10:05:37;;;;;;;22.73;21.05;;;24.00;99.90;;;;;;5247820;28;20346;-67
2023/05/30 10:08:10;;;;;;;23.60;21.70;;;23.60;99.90;;;;;;5228971;28;20025;-70
2023/05/30 10:10:41;;;;;;;22.30;20.08;;;23.60;99.90;;;;;;5227063;28;20528;-69
2023/05/30 10:13:12;;;;;;;20.77;19.17;;;23.70;99.90;;;;;;5226892;28;20025;-66
2023/05/30 10:15:43;;;;;;;22.70;20.90;;;23.80;99.90;;;;;;5226629;28;20036;-66
2023/05/30 10:18:16;;;;;;;21.77;20.10;;;23.90;99.90;;;;;;5226755;28;20017;-69
2023/05/30 10:20:48;;;;;;;20.30;18.60;;;23.80;99.90;;;;;;5226652;28;20382;-66
2023/05/30 10:23:20;;;;;;;20.58;18.92;;;24.20;99.90;;;;;;5226892;28;20423;-69
2023/05/30 10:25:54;;;;;;;21.38;19.42;;;24.10;99.90;;;;;;5226665;28;20029;-68
2023/05/30 10:28:28;;;;;;;19.58;18.08;;;24.10;99.90;;;;;;5226656;28;20103;-69
2023/05/30 10:31:01;;;;;;;20.02;18.33;;;24.30;99.90;;;;;;5226622;28;20078;-68
2023/05/30 10:33:37;;;;;;;20.77;19.02;;;24.10;99.90;;;;;;5226605;28;20087;-69
2023/05/30 10:36:08;;;;;;;20.65;18.55;;;24.10;99.90;;;;;;5226741;28;20510;-69
2023/05/30 10:39:15;;;;;;;21.00;19.15;;;24.20;99.90;;;;;;5226534;28;20025;-67
2023/05/30 10:42:01;;;;;;;20.63;18.90;;;24.10;99.90;;;;;;5226519;28;20124;-66
2023/05/30 10:44:40;;;;;;;20.08;18.45;;;24.10;99.90;;;;;;5226476;28;20055;-69
2023/05/30 10:47:46;;;;;;;21.80;20.00;;;24.00;99.90;;;;;;5226407;28;20512;-67
2023/05/30 10:50:24;;;;;;;25.00;23.15;;;24.00;99.90;;;;;;5226237;28;20045;-67
2023/05/30 10:52:58;;;;;;;23.65;22.02;;;24.20;99.90;;;;;;5226350;28;20021;-67
2023/05/30 10:55:29;;;;;;;23.10;21.45;;;24.30;99.90;;;;;;5226227;28;20024;-70
2023/05/30 10:57:59;;;;;;;25.58;23.70;;;24.20;99.90;;;;;;5228990;28;20025;-67
2023/05/30 11:00:31;;;;;;;26.20;24.10;;;24.20;99.90;;;;;;5212494;28;20021;-66
2023/05/30 11:03:02;;;;;;;26.65;24.88;;;24.30;99.90;;;;;;5230474;28;20018;-69
2023/05/30 11:05:33;;;;;;;27.95;25.45;;;24.60;99.90;;;;;;5230401;28;20345;-70
2023/05/30 11:08:04;;;;;;;26.55;24.52;;;24.30;99.90;;;;;;5230508;28;20414;-68
2023/05/30 11:10:35;;;;;;;26.35;24.25;;;24.30;99.90;;;;;;5230428;28;20110;-68
2023/05/30 11:13:10;;;;;;;24.58;22.73;;;24.30;99.90;;;;;;5230424;28;20350;-68
2023/05/30 11:15:48;;;;;;;25.35;23.48;;;24.40;99.90;;;;;;5230251;28;20032;-69
2023/05/30 11:18:20;;;;;;;24.90;23.10;;;24.30;99.90;;;;;;5230345;28;20552;-68
2023/05/30 11:20:52;;;;;;;25.10;23.15;;;24.60;99.90;;;;;;5230228;28;20053;-68
2023/05/30 11:23:24;;;;;;;23.55;21.52;;;24.40;99.90;;;;;;5230320;28;20021;-68
2023/05/30 11:25:57;;;;;;;23.15;21.35;;;23.80;99.90;;;;;;5230072;28;20456;-66
2023/05/30 11:28:35;;;;;;;24.70;22.15;;;23.60;99.90;;;;;;5230217;28;20025;-69
2023/05/30 11:31:19;;;;;;;22.83;21.08;;;23.60;99.90;;;;;;5230122;28;20108;-70
2023/05/30 11:33:51;;;;;;;25.92;23.92;;;23.40;99.90;;;;;;5230067;28;20108;-69
2023/05/30 11:36:22;;;;;;;24.85;22.92;;;23.20;99.90;;;;;;5230135;28;20023;-67
2023/05/30 11:38:53;;;;;;;26.38;24.23;;;23.30;99.90;;;;;;5229926;28;20516;-67
2023/05/30 11:41:26;;;;;;;25.63;23.83;;;23.20;99.90;;;;;;5229858;28;20025;-67
2023/05/30 11:43:57;;;;;;;27.38;24.95;;;23.30;99.90;;;;;;5229800;28;20013;-70
2023/05/30 11:46:28;;;;;;;27.75;25.73;;;23.20;99.90;;;;;;5229640;28;20131;-67
2023/05/30 11:49:07;;;;;;;27.27;25.27;;;23.10;99.90;;;;;;5229565;28;20086;-67
2023/05/30 11:51:38;;;;;;;27.08;24.90;;;23.00;99.90;;;;;;5229755;28;20389;-68
2023/05/30 11:54:09;;;;;;;27.20;24.85;;;22.80;99.90;;;;;;5229550;28;20104;-69
2023/05/30 11:56:40;;;;;;;30.23;27.63;;;22.70;99.90;;;;;;5229492;28;20532;-68
2023/05/30 11:59:11;;;;;;;27.63;25.13;;;22.70;99.90;;;;;;5229302;28;20088;-71
2023/05/30 12:01:42;;;;;;;28.83;26.30;;;22.70;99.90;;;;;;5229356;28;20103;-67
2023/05/30 12:04:13;;;;;;;28.05;25.83;;;22.70;99.90;;;;;;5229268;28;20025;-67
2023/05/30 12:06:47;;;;;;;28.48;26.27;;;22.70;99.90;;;;;;5229442;28;20041;-70
2023/05/30 12:09:19;;;;;;;28.05;25.23;;;22.60;99.90;;;;;;5228836;28;20356;-69
2023/05/30 12:11:58;;;;;;;25.85;23.75;;;22.30;99.90;;;;;;5229259;28;20025;-68
2023/05/30 12:14:44;;;;;;;28.40;26.42;;;22.30;99.90;;;;;;5229352;28;20025;-68
2023/05/30 12:17:18;;;;;;;28.88;26.80;;;22.10;99.90;;;;;;5229265;28;20025;-67
2023/05/30 12:20:09;;;;;;;30.58;28.17;;;22.10;99.90;;;;;;5228825;28;20120;-68
2023/05/30 12:22:44;;;;;;;26.70;24.58;;;22.00;99.90;;;;;;5229261;28;20025;-69
2023/05/30 12:25:14;;;;;;;26.75;24.60;;;22.00;99.90;;;;;;5229109;28;20100;-67
2023/05/30 12:27:49;;;;;;;27.40;25.40;;;22.00;99.90;;;;;;5229154;28;20125;-68
2023/05/30 12:30:20;;;;;;;28.75;26.38;;;21.90;99.90;;;;;;5228948;28;20032;-68
2023/05/30 12:32:51;;;;;;;27.30;25.10;;;22.00;99.90;;;;;;5228789;28;20025;-67
2023/05/30 12:35:26;;;;;;;28.52;26.52;;;21.90;99.90;;;;;;5228823;28;20027;-67
2023/05/30 12:37:58;;;;;;;27.00;24.80;;;21.90;99.90;;;;;;5228694;28;20083;-68
2023/05/30 12:40:29;;;;;;;28.20;25.63;;;21.80;99.90;;;;;;5228795;28;20427;-67
2023/05/30 12:43:00;;;;;;;27.13;24.98;;;22.00;99.90;;;;;;5228693;28;20032;-70
2023/05/30 12:45:34;;;;;;;26.90;24.85;;;21.70;99.90;;;;;;5228576;28;20040;-67
2023/05/30 12:48:05;;;;;;;28.67;26.58;;;21.90;99.90;;;;;;5210576;28;20047;-67
2023/05/30 12:50:36;;;;;;;27.65;25.45;;;21.80;99.90;;;;;;5228414;28;20481;-68
2023/05/30 12:53:07;;;;;;;27.63;25.63;;;21.80;99.90;;;;;;5228583;28;20029;-67
2023/05/30 12:55:38;;;;;;;25.90;23.90;;;21.70;99.90;;;;;;5228297;28;20035;-66